Time;durP1;ratioP1;P1;durP2;ratioP2;P2;SDS_P1;SDS_P2;PMS_P1;PMS_P2;Temp;Humidity;BMP_temperature;BMP_pressure;BME280_temperature;BME280_humidity;BME280_pressure;Samples;Min_cycle;Max_cycle;Signal;HPM_P1;HPM_P2
2021/07/13 00:00:32;;;;;;;3.00;2.17;;;;;;;;;;5081466;28;20206;-68
2021/07/13 00:03:01;;;;;;;3.00;2.30;;;;;;;;;;5080839;28;20656;-67
2021/07/13 00:05:31;;;;;;;2.30;2.10;;;;;;;;;;5081280;28;20282;-68
2021/07/13 00:07:59;;;;;;;2.17;1.93;;;;;;;;;;5081394;28;20313;-68
2021/07/13 00:10:28;;;;;;;3.50;2.33;;;;;;;;;;5080866;28;20202;-68
2021/07/13 00:12:57;;;;;;;3.40;2.70;;;;;;;;;;5081205;28;20317;-68
2021/07/13 00:15:26;;;;;;;2.30;2.00;;;;;;;;;;5081146;28;20208;-67
2021/07/13 00:17:55;;;;;;;2.00;1.80;;;;;;;;;;5080884;28;20198;-67
2021/07/13 00:20:23;;;;;;;2.67;1.93;;;;;;;;;;5080955;28;20218;-66
2021/07/13 00:22:52;;;;;;;2.70;2.07;;;;;;;;;;5080999;28;20232;-66
2021/07/13 00:25:21;;;;;;;2.20;1.80;;;;;;;;;;5080795;28;20208;-66
2021/07/13 00:27:49;;;;;;;3.77;1.97;;;;;;;;;;5080930;28;20209;-68
2021/07/13 00:30:18;;;;;;;2.20;2.00;;;;;;;;;;5080948;28;20273;-68
2021/07/13 00:32:46;;;;;;;2.47;2.27;;;;;;;;;;5080418;28;20229;-68
2021/07/13 00:35:14;;;;;;;2.20;1.83;;;;;;;;;;5079711;28;20305;-67
2021/07/13 00:37:42;;;;;;;2.00;1.90;;;;;;;;;;5079517;28;20289;-68
2021/07/13 00:40:14;;;;;;;2.30;2.10;;;;;;;;;;5079498;28;20202;-67
2021/07/13 00:42:43;;;;;;;2.20;2.00;;;;;;;;;;5079171;28;20230;-67
2021/07/13 00:45:11;;;;;;;3.70;2.30;;;;;;;;;;5079343;28;20202;-67
2021/07/13 00:47:39;;;;;;;3.10;2.30;;;;;;;;;;5079205;28;20672;-67
2021/07/13 00:50:08;;;;;;;3.23;1.90;;;;;;;;;;5079043;28;20750;-67
2021/07/13 00:52:36;;;;;;;2.63;2.00;;;;;;;;;;5079160;28;20222;-67
2021/07/13 00:55:05;;;;;;;2.17;1.97;;;;;;;;;;5079525;28;20212;-67
2021/07/13 00:57:36;;;;;;;2.10;2.00;;;;;;;;;;5079010;28;20224;-67
2021/07/13 01:00:05;;;;;;;3.80;2.50;;;;;;;;;;5079043;28;20202;-67
2021/07/13 01:02:33;;;;;;;2.53;2.30;;;;;;;;;;5078823;28;20230;-67
2021/07/13 01:05:02;;;;;;;2.50;2.30;;;;;;;;;;5079341;28;20657;-67
2021/07/13 01:07:34;;;;;;;4.57;2.33;;;;;;;;;;5078862;28;20570;-67
2021/07/13 01:10:05;;;;;;;2.27;2.03;;;;;;;;;;5079069;28;20230;-67
2021/07/13 01:12:40;;;;;;;2.37;2.17;;;;;;;;;;5078897;28;20218;-67
2021/07/13 01:15:09;;;;;;;3.07;1.97;;;;;;;;;;5078777;28;20213;-67
2021/07/13 01:17:40;;;;;;;2.00;1.90;;;;;;;;;;5078729;28;20205;-67
2021/07/13 01:20:27;;;;;;;1.90;1.80;;;;;;;;;;5078579;28;20206;-67
2021/07/13 01:23:01;;;;;;;2.50;1.93;;;;;;;;;;5078883;28;20222;-67
2021/07/13 01:25:33;;;;;;;1.93;1.83;;;;;;;;;;5078810;28;20276;-66
2021/07/13 01:28:06;;;;;;;2.43;2.10;;;;;;;;;;5078600;28;20210;-65
2021/07/13 01:30:37;;;;;;;3.87;1.97;;;;;;;;;;5078856;28;20233;-65
2021/07/13 01:33:06;;;;;;;2.20;1.80;;;;;;;;;;5078391;28;20226;-67
2021/07/13 01:35:36;;;;;;;1.80;1.70;;;;;;;;;;5034313;28;1288951;-67
2021/07/13 01:38:05;;;;;;;2.10;1.93;;;;;;;;;;5079775;28;20266;-67
2021/07/13 01:40:33;;;;;;;2.03;1.70;;;;;;;;;;5079585;28;20206;-67
2021/07/13 01:43:03;;;;;;;1.77;1.67;;;;;;;;;;5079383;28;20226;-66
2021/07/13 01:45:32;;;;;;;2.83;1.70;;;;;;;;;;5079489;28;20210;-66
2021/07/13 01:48:01;;;;;;;1.80;1.70;;;;;;;;;;5078750;28;20202;-66
2021/07/13 01:50:29;;;;;;;1.97;1.87;;;;;;;;;;5079130;28;20597;-66
2021/07/13 01:52:57;;;;;;;2.67;1.77;;;;;;;;;;5078967;28;20226;-67
2021/07/13 01:55:25;;;;;;;2.67;2.47;;;;;;;;;;5079020;28;20206;-66
2021/07/13 01:57:54;;;;;;;2.93;1.57;;;;;;;;;;5079287;28;20209;-66
2021/07/13 02:00:22;;;;;;;2.90;1.90;;;;;;;;;;5079104;28;20265;-66
2021/07/13 02:02:51;;;;;;;2.87;2.30;;;;;;;;;;5077738;28;20234;-66
2021/07/13 02:05:20;;;;;;;3.77;1.87;;;;;;;;;;5079011;28;20228;-66
2021/07/13 02:07:50;;;;;;;2.33;1.80;;;;;;;;;;5078824;28;20848;-66
2021/07/13 02:10:18;;;;;;;2.17;1.67;;;;;;;;;;5078924;28;20222;-66
2021/07/13 02:12:47;;;;;;;2.23;1.90;;;;;;;;;;5078712;28;20310;-66
2021/07/13 02:15:15;;;;;;;1.60;1.50;;;;;;;;;;5078690;28;20208;-66
2021/07/13 02:17:44;;;;;;;3.60;1.70;;;;;;;;;;5078326;28;20573;-66
2021/07/13 02:20:14;;;;;;;2.63;2.00;;;;;;;;;;5078477;28;20577;-66
2021/07/13 02:22:42;;;;;;;2.23;1.60;;;;;;;;;;5078750;28;20233;-66
2021/07/13 02:25:12;;;;;;;4.50;2.03;;;;;;;;;;5078528;28;20282;-66
2021/07/13 02:27:44;;;;;;;3.17;2.00;;;;;;;;;;5078696;28;20244;-66
2021/07/13 02:30:12;;;;;;;3.03;2.07;;;;;;;;;;5078468;28;20226;-66
2021/07/13 02:32:44;;;;;;;4.67;2.33;;;;;;;;;;5078230;28;20281;-66
2021/07/13 02:35:13;;;;;;;4.03;2.40;;;;;;;;;;5078299;28;20317;-66
2021/07/13 02:37:45;;;;;;;3.47;2.63;;;;;;;;;;5078234;28;20294;-66
2021/07/13 02:40:13;;;;;;;3.70;2.40;;;;;;;;;;5078353;28;20213;-66
2021/07/13 02:42:43;;;;;;;3.03;2.10;;;;;;;;;;5078273;28;20326;-66
2021/07/13 02:45:11;;;;;;;2.83;1.60;;;;;;;;;;5078310;28;20571;-64
2021/07/13 02:47:41;;;;;;;1.60;1.50;;;;;;;;;;5077784;28;20213;-64
2021/07/13 02:50:09;;;;;;;2.47;1.50;;;;;;;;;;5078331;28;20226;-65
2021/07/13 02:52:37;;;;;;;2.20;1.80;;;;;;;;;;5078187;28;20236;-65
2021/07/13 02:55:09;;;;;;;3.13;2.13;;;;;;;;;;5078214;28;20208;-65
2021/07/13 02:57:39;;;;;;;3.73;2.50;;;;;;;;;;5077906;28;20297;-65
2021/07/13 03:00:08;;;;;;;2.13;1.93;;;;;;;;;;5078215;28;20212;-65
2021/07/13 03:02:38;;;;;;;2.43;2.00;;;;;;;;;;5077612;28;20313;-64
2021/07/13 03:05:06;;;;;;;2.70;1.90;;;;;;;;;;5077921;28;20257;-64
2021/07/13 03:07:34;;;;;;;1.77;1.67;;;;;;;;;;5078129;28;20237;-66
2021/07/13 03:10:05;;;;;;;1.67;1.40;;;;;;;;;;5077861;28;20222;-66
2021/07/13 03:12:35;;;;;;;2.13;1.70;;;;;;;;;;5077808;28;20218;-66
2021/07/13 03:15:05;;;;;;;1.53;1.43;;;;;;;;;;5078076;28;20202;-65
2021/07/13 03:17:33;;;;;;;1.50;1.33;;;;;;;;;;5078263;28;20216;-66
2021/07/13 03:20:01;;;;;;;2.97;1.80;;;;;;;;;;5078885;28;20285;-64
2021/07/13 03:22:30;;;;;;;2.20;1.70;;;;;;;;;;5078003;28;20234;-66
2021/07/13 03:24:59;;;;;;;2.33;2.03;;;;;;;;;;5077544;28;20211;-65
2021/07/13 03:27:27;;;;;;;2.10;2.00;;;;;;;;;;5077927;28;20221;-64
2021/07/13 03:29:58;;;;;;;2.20;2.10;;;;;;;;;;5077436;28;20576;-66
2021/07/13 03:32:26;;;;;;;2.50;2.30;;;;;;;;;;5077806;28;20232;-64
2021/07/13 03:34:54;;;;;;;1.67;1.57;;;;;;;;;;5077662;28;20237;-64
2021/07/13 03:37:23;;;;;;;1.83;1.57;;;;;;;;;;5077578;28;20695;-66
2021/07/13 03:39:51;;;;;;;1.97;1.87;;;;;;;;;;5077544;28;20202;-65
2021/07/13 03:42:19;;;;;;;2.23;1.67;;;;;;;;;;5077675;28;20222;-64
2021/07/13 03:44:47;;;;;;;3.60;2.10;;;;;;;;;;5077719;28;20232;-65
2021/07/13 03:47:18;;;;;;;2.33;2.10;;;;;;;;;;5077096;28;20210;-64
2021/07/13 03:49:47;;;;;;;4.97;2.00;;;;;;;;;;5077569;28;20243;-64
2021/07/13 03:52:17;;;;;;;2.03;1.93;;;;;;;;;;5077167;28;20591;-66
2021/07/13 03:54:45;;;;;;;2.50;2.30;;;;;;;;;;5077813;28;20228;-64
2021/07/13 03:57:13;;;;;;;3.03;2.43;;;;;;;;;;5077540;28;20304;-65
2021/07/13 03:59:42;;;;;;;2.73;2.50;;;;;;;;;;5077454;28;20623;-64
2021/07/13 04:02:10;;;;;;;3.43;2.50;;;;;;;;;;5076922;28;20628;-64
2021/07/13 04:04:40;;;;;;;2.57;2.33;;;;;;;;;;5077510;28;20216;-66
2021/07/13 04:07:08;;;;;;;7.23;5.13;;;;;;;;;;5077291;28;20206;-66
2021/07/13 04:09:36;;;;;;;3.63;3.30;;;;;;;;;;5077412;28;20244;-65
2021/07/13 04:12:04;;;;;;;3.07;2.57;;;;;;;;;;5077029;28;20271;-66
2021/07/13 04:14:34;;;;;;;5.13;2.90;;;;;;;;;;5077411;28;20202;-64
2021/07/13 04:17:02;;;;;;;2.53;2.23;;;;;;;;;;5077450;28;20211;-65
2021/07/13 04:19:30;;;;;;;2.93;2.63;;;;;;;;;;5077285;28;20248;-65
2021/07/13 04:22:00;;;;;;;2.90;2.70;;;;;;;;;;5077224;28;20226;-64
2021/07/13 04:24:28;;;;;;;2.13;1.93;;;;;;;;;;5077304;28;20218;-65
2021/07/13 04:26:56;;;;;;;2.87;2.30;;;;;;;;;;5080610;28;20312;-64
2021/07/13 04:29:24;;;;;;;3.57;2.83;;;;;;;;;;5080940;28;20248;-66
2021/07/13 04:31:52;;;;;;;2.87;2.57;;;;;;;;;;5080665;28;20327;-66
2021/07/13 04:34:21;;;;;;;3.33;2.70;;;;;;;;;;5080563;28;20663;-65
2021/07/13 04:36:49;;;;;;;2.17;2.07;;;;;;;;;;5080828;28;20264;-65
2021/07/13 04:39:18;;;;;;;2.77;2.30;;;;;;;;;;5080696;28;20260;-65
2021/07/13 04:41:46;;;;;;;2.50;2.30;;;;;;;;;;5080499;28;20225;-65
2021/07/13 04:44:15;;;;;;;4.57;2.13;;;;;;;;;;5080682;28;20213;-66
2021/07/13 04:46:43;;;;;;;2.23;2.10;;;;;;;;;;5080575;28;20220;-66
2021/07/13 04:49:12;;;;;;;3.47;2.33;;;;;;;;;;5080062;28;20224;-66
2021/07/13 04:51:40;;;;;;;3.03;2.83;;;;;;;;;;5080226;28;20234;-66
2021/07/13 04:54:08;;;;;;;3.33;2.27;;;;;;;;;;5080415;28;20288;-65
2021/07/13 04:56:37;;;;;;;2.67;2.27;;;;;;;;;;5080331;28;20209;-66
2021/07/13 04:59:05;;;;;;;4.10;2.37;;;;;;;;;;5080095;28;20218;-66
2021/07/13 05:01:33;;;;;;;4.43;1.90;;;;;;;;;;5080017;28;20226;-66
2021/07/13 05:04:01;;;;;;;2.73;2.50;;;;;;;;;;5080019;28;20295;-65
2021/07/13 05:06:29;;;;;;;2.70;2.50;;;;;;;;;;5080078;28;20636;-64
2021/07/13 05:08:57;;;;;;;2.43;2.23;;;;;;;;;;5079950;28;20228;-64
2021/07/13 05:11:26;;;;;;;4.40;2.03;;;;;;;;;;5079606;28;20226;-66
2021/07/13 05:13:56;;;;;;;5.47;3.43;;;;;;;;;;5077638;28;20206;-64
2021/07/13 05:16:24;;;;;;;2.83;2.60;;;;;;;;;;5080251;28;20242;-66
2021/07/13 05:18:52;;;;;;;3.57;2.73;;;;;;;;;;5079698;28;20268;-65
2021/07/13 05:21:20;;;;;;;6.00;2.67;;;;;;;;;;5079932;28;20305;-66
2021/07/13 05:23:47;;;;;;;2.83;2.57;;;;;;;;;;5079689;28;20202;-66
2021/07/13 05:26:15;;;;;;;4.03;3.20;;;;;;;;;;5079441;28;20565;-65
2021/07/13 05:28:44;;;;;;;4.23;3.00;;;;;;;;;;5079627;28;20576;-65
2021/07/13 05:31:14;;;;;;;4.03;3.37;;;;;;;;;;5079562;28;20229;-66
2021/07/13 05:33:42;;;;;;;3.47;2.77;;;;;;;;;;5079350;28;20213;-65
2021/07/13 05:36:10;;;;;;;2.83;2.60;;;;;;;;;;5078909;28;20211;-65
2021/07/13 05:38:38;;;;;;;3.43;3.10;;;;;;;;;;5079175;28;20270;-65
2021/07/13 05:41:06;;;;;;;4.87;3.60;;;;;;;;;;5079326;28;20198;-66
2021/07/13 05:43:34;;;;;;;3.43;3.10;;;;;;;;;;5079502;28;20206;-65
2021/07/13 05:46:02;;;;;;;5.93;3.30;;;;;;;;;;5079380;28;20216;-66
2021/07/13 05:48:32;;;;;;;5.60;3.60;;;;;;;;;;5078795;28;20686;-66
2021/07/13 05:51:00;;;;;;;5.33;3.20;;;;;;;;;;5078877;28;20226;-66
2021/07/13 05:53:28;;;;;;;4.43;3.27;;;;;;;;;;5079047;28;20202;-66
2021/07/13 05:55:55;;;;;;;4.80;3.13;;;;;;;;;;5079107;28;20210;-65
2021/07/13 05:58:23;;;;;;;2.87;2.67;;;;;;;;;;5079206;28;20208;-66
2021/07/13 06:00:51;;;;;;;6.53;2.93;;;;;;;;;;5079219;28;20214;-67
2021/07/13 06:03:19;;;;;;;3.20;2.90;;;;;;;;;;5078666;28;20597;-66
2021/07/13 06:05:49;;;;;;;5.27;3.27;;;;;;;;;;5078883;28;20665;-66
2021/07/13 06:08:17;;;;;;;7.23;2.90;;;;;;;;;;5079001;28;20201;-66
2021/07/13 06:10:45;;;;;;;3.57;2.53;;;;;;;;;;5078769;28;20220;-66
2021/07/13 06:13:13;;;;;;;5.53;3.03;;;;;;;;;;5078543;28;20230;-66
2021/07/13 06:15:41;;;;;;;3.23;2.70;;;;;;;;;;5078880;28;20206;-66
2021/07/13 06:18:09;;;;;;;2.70;2.50;;;;;;;;;;5078549;28;20214;-66
2021/07/13 06:20:37;;;;;;;4.80;3.20;;;;;;;;;;5078712;28;20206;-65
2021/07/13 06:23:06;;;;;;;5.07;3.30;;;;;;;;;;5078621;28;20272;-65
2021/07/13 06:25:34;;;;;;;5.27;3.23;;;;;;;;;;5078564;28;20205;-65
2021/07/13 06:28:02;;;;;;;6.17;3.50;;;;;;;;;;5078969;28;20221;-65
2021/07/13 06:30:30;;;;;;;3.87;3.50;;;;;;;;;;5078759;28;20292;-65
2021/07/13 06:32:58;;;;;;;5.07;3.43;;;;;;;;;;5076343;28;20238;-65
2021/07/13 06:35:26;;;;;;;4.20;2.90;;;;;;;;;;5076754;28;20234;-66
2021/07/13 06:37:54;;;;;;;3.30;3.00;;;;;;;;;;5078308;28;20210;-65
2021/07/13 06:40:24;;;;;;;5.73;3.10;;;;;;;;;;5077564;28;20212;-64
2021/07/13 06:42:51;;;;;;;3.27;2.80;;;;;;;;;;5078052;28;20229;-66
2021/07/13 06:45:19;;;;;;;4.43;2.73;;;;;;;;;;5078224;28;20198;-66
2021/07/13 06:47:48;;;;;;;3.63;2.60;;;;;;;;;;5077472;28;20202;-66
2021/07/13 06:50:16;;;;;;;3.07;2.77;;;;;;;;;;5078066;28;20204;-66
2021/07/13 06:52:44;;;;;;;3.10;2.90;;;;;;;;;;5077826;28;20226;-66
2021/07/13 06:55:12;;;;;;;3.60;2.80;;;;;;;;;;5077787;28;20213;-66
2021/07/13 06:57:42;;;;;;;5.63;3.20;;;;;;;;;;5077849;28;20206;-66
2021/07/13 07:00:10;;;;;;;2.90;2.50;;;;;;;;;;5077916;28;20210;-66
2021/07/13 07:02:38;;;;;;;3.23;2.30;;;;;;;;;;5077631;28;20222;-66
2021/07/13 07:05:07;;;;;;;2.27;2.07;;;;;;;;;;5077829;28;20216;-66
2021/07/13 07:07:42;;;;;;;3.27;1.90;;;;;;;;;;5078160;28;20657;-66
2021/07/13 07:10:11;;;;;;;4.40;2.30;;;;;;;;;;5078253;28;20210;-67
2021/07/13 07:12:38;;;;;;;3.67;2.20;;;;;;;;;;5078232;28;20233;-66
2021/07/13 07:15:08;;;;;;;2.87;2.10;;;;;;;;;;5078286;28;20293;-66
2021/07/13 07:17:42;;;;;;;3.53;2.33;;;;;;;;;;5077681;28;20206;-66
2021/07/13 07:20:11;;;;;;;2.37;2.17;;;;;;;;;;5077627;28;20224;-66
2021/07/13 07:22:39;;;;;;;2.00;1.83;;;;;;;;;;5078114;28;20222;-66
2021/07/13 07:25:07;;;;;;;2.60;2.17;;;;;;;;;;5077464;28;20202;-66
2021/07/13 07:27:36;;;;;;;3.63;2.00;;;;;;;;;;5077600;28;20554;-66
2021/07/13 07:30:06;;;;;;;1.87;1.77;;;;;;;;;;5077748;28;20241;-66
2021/07/13 07:32:35;;;;;;;2.17;1.70;;;;;;;;;;5077322;28;20230;-66
2021/07/13 07:35:05;;;;;;;2.07;1.70;;;;;;;;;;5077367;28;20244;-66
2021/07/13 07:37:34;;;;;;;4.67;2.10;;;;;;;;;;5077907;28;20210;-66
2021/07/13 07:40:02;;;;;;;2.07;1.97;;;;;;;;;;5064677;28;20471;-66
2021/07/13 07:42:31;;;;;;;1.87;1.77;;;;;;;;;;5077610;28;20236;-66
2021/07/13 07:45:00;;;;;;;5.37;2.20;;;;;;;;;;5077717;28;20216;-66
2021/07/13 07:47:28;;;;;;;4.67;1.93;;;;;;;;;;5077409;28;20301;-67
2021/07/13 07:49:57;;;;;;;2.50;1.70;;;;;;;;;;5077666;28;20206;-66
2021/07/13 07:52:25;;;;;;;3.87;2.30;;;;;;;;;;5077389;28;20240;-66
2021/07/13 07:54:53;;;;;;;3.57;3.03;;;;;;;;;;5077827;28;20606;-67
2021/07/13 07:57:21;;;;;;;2.23;2.07;;;;;;;;;;5077045;28;20293;-67
2021/07/13 07:59:49;;;;;;;2.33;2.00;;;;;;;;;;5077773;28;20566;-67
2021/07/13 08:02:17;;;;;;;1.70;1.60;;;;;;;;;;5081118;28;20222;-66
2021/07/13 08:04:45;;;;;;;2.10;1.90;;;;;;;;;;5081711;28;20748;-66
2021/07/13 08:07:14;;;;;;;2.20;2.00;;;;;;;;;;5081221;28;20221;-66
2021/07/13 08:09:42;;;;;;;3.30;2.13;;;;;;;;;;5080979;28;20297;-66
2021/07/13 08:12:10;;;;;;;7.37;2.27;;;;;;;;;;5080766;28;20226;-67
2021/07/13 08:14:38;;;;;;;2.77;2.10;;;;;;;;;;5081412;28;20741;-66
2021/07/13 08:17:06;;;;;;;7.70;5.63;;;;;;;;;;5080542;28;20206;-66
2021/07/13 08:19:38;;;;;;;4.37;2.70;;;;;;;;;;5081159;28;20207;-66
2021/07/13 08:22:07;;;;;;;2.40;2.20;;;;;;;;;;5081178;28;20249;-66
2021/07/13 08:24:36;;;;;;;4.00;2.30;;;;;;;;;;5081097;28;20221;-66
2021/07/13 08:27:04;;;;;;;2.30;2.17;;;;;;;;;;5067429;28;20237;-67
2021/07/13 08:29:33;;;;;;;2.73;1.73;;;;;;;;;;5080901;28;20210;-66
2021/07/13 08:32:01;;;;;;;4.27;2.70;;;;;;;;;;5080660;28;20272;-66
2021/07/13 08:34:29;;;;;;;3.87;1.97;;;;;;;;;;5080557;28;20249;-67
2021/07/13 08:36:57;;;;;;;3.47;1.90;;;;;;;;;;5080802;28;20220;-66
2021/07/13 08:39:25;;;;;;;2.83;2.33;;;;;;;;;;5080660;28;20206;-66
2021/07/13 08:41:55;;;;;;;3.50;2.20;;;;;;;;;;5080641;28;20309;-66
2021/07/13 08:44:23;;;;;;;2.37;2.10;;;;;;;;;;5080684;28;20238;-66
2021/07/13 08:46:51;;;;;;;2.20;2.00;;;;;;;;;;5080652;28;20203;-66
2021/07/13 08:49:21;;;;;;;2.00;1.90;;;;;;;;;;5080321;28;20646;-66
2021/07/13 08:51:49;;;;;;;3.93;2.40;;;;;;;;;;5080473;28;20304;-66
2021/07/13 08:54:17;;;;;;;1.67;1.57;;;;;;;;;;5080424;28;20234;-66
2021/07/13 08:56:45;;;;;;;1.93;1.70;;;;;;;;;;5080371;28;20212;-66
2021/07/13 08:59:15;;;;;;;3.43;1.60;;;;;;;;;;5080173;28;20247;-66
2021/07/13 09:01:43;;;;;;;2.50;2.30;;;;;;;;;;5080115;28;20312;-67
2021/07/13 09:04:11;;;;;;;1.97;1.77;;;;;;;;;;5079969;28;20293;-66
2021/07/13 09:06:49;;;;;;;1.57;1.40;;;;;;;;;;5080178;28;20210;-67
2021/07/13 09:09:24;;;;;;;1.73;1.63;;;;;;;;;;5080035;28;20206;-67
2021/07/13 09:12:15;;;;;;;5.40;1.73;;;;;;;;;;5079825;28;20228;-67
2021/07/13 09:15:01;;;;;;;1.93;1.83;;;;;;;;;;5080124;28;20317;-66
2021/07/13 09:17:38;;;;;;;3.13;1.53;;;;;;;;;;5079767;28;20212;-66
2021/07/13 09:20:16;;;;;;;7.57;2.93;;;;;;;;;;5079680;28;20232;-67
2021/07/13 09:22:54;;;;;;;3.27;2.00;;;;;;;;;;5079679;28;20236;-66
2021/07/13 09:25:23;;;;;;;4.43;1.77;;;;;;;;;;5079370;28;20583;-66
2021/07/13 09:28:08;;;;;;;1.50;1.40;;;;;;;;;;5079783;28;20290;-66
2021/07/13 09:30:36;;;;;;;3.20;1.90;;;;;;;;;;5079945;28;20206;-67
2021/07/13 09:33:20;;;;;;;3.93;2.03;;;;;;;;;;5080098;28;20234;-66
2021/07/13 09:36:05;;;;;;;4.20;1.80;;;;;;;;;;5080035;28;20269;-66
2021/07/13 09:38:35;;;;;;;3.37;2.20;;;;;;;;;;5079662;28;20284;-67
2021/07/13 09:41:04;;;;;;;1.80;1.70;;;;;;;;;;5079429;28;20212;-67
2021/07/13 09:43:42;;;;;;;1.70;1.60;;;;;;;;;;5079616;28;20642;-66
2021/07/13 09:46:23;;;;;;;3.37;1.40;;;;;;;;;;5079115;28;20568;-66
2021/07/13 09:49:15;;;;;;;1.83;1.63;;;;;;;;;;5079292;28;20232;-66
2021/07/13 09:51:45;;;;;;;3.33;1.87;;;;;;;;;;5079245;28;20221;-66
2021/07/13 09:54:29;;;;;;;1.83;1.73;;;;;;;;;;5079228;28;20317;-67
2021/07/13 09:56:57;;;;;;;2.30;2.10;;;;;;;;;;5079177;28;20737;-67
2021/07/13 09:59:25;;;;;;;1.73;1.53;;;;;;;;;;5078952;28;20217;-66
2021/07/13 10:01:53;;;;;;;2.50;2.30;;;;;;;;;;5078937;28;20233;-66
2021/07/13 10:04:23;;;;;;;2.37;1.40;;;;;;;;;;5079130;28;20202;-67
2021/07/13 10:06:53;;;;;;;5.70;2.10;;;;;;;;;;5079061;28;20273;-67
2021/07/13 10:09:24;;;;;;;1.60;1.50;;;;;;;;;;5078859;28;20206;-67
2021/07/13 10:11:52;;;;;;;3.03;1.73;;;;;;;;;;5078612;28;20305;-67
2021/07/13 10:14:20;;;;;;;3.70;1.70;;;;;;;;;;5078718;28;20230;-66
2021/07/13 10:16:48;;;;;;;2.60;1.60;;;;;;;;;;5078913;28;20214;-66
2021/07/13 10:19:17;;;;;;;1.83;1.70;;;;;;;;;;5078846;28;20206;-67
2021/07/13 10:21:49;;;;;;;1.83;1.30;;;;;;;;;;5078630;28;20330;-66
2021/07/13 10:24:21;;;;;;;1.50;1.40;;;;;;;;;;5078319;28;20206;-66
2021/07/13 10:26:50;;;;;;;2.80;1.30;;;;;;;;;;5078768;28;20206;-67
2021/07/13 10:29:39;;;;;;;1.73;1.60;;;;;;;;;;5079175;28;20198;-67
2021/07/13 10:32:08;;;;;;;1.60;1.50;;;;;;;;;;5078322;28;20236;-67
2021/07/13 10:34:49;;;;;;;2.20;1.57;;;;;;;;;;5078976;28;20248;-67
2021/07/13 10:37:28;;;;;;;3.43;1.67;;;;;;;;;;5078861;28;20208;-67
2021/07/13 10:39:57;;;;;;;3.10;1.33;;;;;;;;;;5078690;28;20637;-67
2021/07/13 10:42:43;;;;;;;2.40;1.40;;;;;;;;;;5078510;28;20230;-66
2021/07/13 10:45:13;;;;;;;1.30;1.20;;;;;;;;;;5078256;28;20198;-67
2021/07/13 10:51:10;;;;;;;1.20;1.20;;;;;;;;;;5078112;28;20216;-67
2021/07/13 10:53:41;;;;;;;1.50;1.30;;;;;;;;;;5078302;28;20228;-67
2021/07/13 10:56:11;;;;;;;3.30;1.57;;;;;;;;;;5077975;28;20696;-67
2021/07/13 10:58:44;;;;;;;3.23;1.30;;;;;;;;;;5078309;28;20289;-66
2021/07/13 11:01:14;;;;;;;1.50;1.20;;;;;;;;;;5078111;28;20213;-67
2021/07/13 11:03:55;;;;;;;1.50;1.40;;;;;;;;;;5077832;28;20209;-66
2021/07/13 11:06:39;;;;;;;1.00;1.00;;;;;;;;;;5078329;28;20248;-67
2021/07/13 11:09:25;;;;;;;3.97;1.57;;;;;;;;;;5078660;28;20293;-67
2021/07/13 11:12:02;;;;;;;1.33;1.20;;;;;;;;;;5078712;28;20282;-67
2021/07/13 11:14:30;;;;;;;1.90;1.80;;;;;;;;;;5078494;28;20330;-66
2021/07/13 11:16:58;;;;;;;1.20;1.10;;;;;;;;;;5077868;28;20209;-67
2021/07/13 11:19:31;;;;;;;1.07;1.07;;;;;;;;;;5077710;28;20202;-67
2021/07/13 11:21:59;;;;;;;2.53;1.20;;;;;;;;;;5077845;28;20304;-67
2021/07/13 11:24:27;;;;;;;2.03;1.30;;;;;;;;;;5077650;28;20309;-66
2021/07/13 11:26:58;;;;;;;1.57;1.37;;;;;;;;;;5077852;28;20210;-67
2021/07/13 11:29:27;;;;;;;5.83;1.67;;;;;;;;;;5077962;28;20209;-66
2021/07/13 11:31:57;;;;;;;1.37;1.27;;;;;;;;;;5077394;28;20264;-67
2021/07/13 11:34:26;;;;;;;1.10;1.00;;;;;;;;;;5078897;28;20253;-67
2021/07/13 11:36:55;;;;;;;1.20;1.10;;;;;;;;;;5081902;28;20696;-67
2021/07/13 11:39:24;;;;;;;1.30;1.20;;;;;;;;;;5082226;28;20216;-67
2021/07/13 11:41:53;;;;;;;1.37;1.17;;;;;;;;;;5081894;28;20230;-67
2021/07/13 11:44:23;;;;;;;1.20;1.10;;;;;;;;;;5081882;28;20284;-67
2021/07/13 11:46:52;;;;;;;1.07;1.00;;;;;;;;;;5081601;28;20236;-67
2021/07/13 11:49:23;;;;;;;1.77;1.30;;;;;;;;;;5081650;28;20242;-67
2021/07/13 11:51:55;;;;;;;2.43;1.20;;;;;;;;;;5081489;28;20308;-67
2021/07/13 11:54:24;;;;;;;1.10;1.10;;;;;;;;;;5081238;28;20312;-67
2021/07/13 11:56:53;;;;;;;4.07;1.20;;;;;;;;;;5081742;28;20201;-67
2021/07/13 11:59:23;;;;;;;1.17;1.00;;;;;;;;;;5081426;28;20213;-67
2021/07/13 12:01:54;;;;;;;3.17;1.27;;;;;;;;;;5081004;28;20313;-66
2021/07/13 12:04:22;;;;;;;2.07;1.10;;;;;;;;;;5081612;28;20212;-67
2021/07/13 12:06:51;;;;;;;1.67;1.10;;;;;;;;;;5081321;28;20293;-67
2021/07/13 12:09:28;;;;;;;0.90;0.90;;;;;;;;;;5081126;28;20276;-67
2021/07/13 12:11:57;;;;;;;1.30;1.20;;;;;;;;;;5080795;28;20229;-67
2021/07/13 12:14:27;;;;;;;2.83;1.20;;;;;;;;;;5080719;28;20317;-67
2021/07/13 12:16:57;;;;;;;1.57;1.40;;;;;;;;;;5080550;28;20218;-67
2021/07/13 12:19:27;;;;;;;1.00;1.00;;;;;;;;;;5080621;28;20206;-67
2021/07/13 12:21:56;;;;;;;2.07;1.03;;;;;;;;;;5080274;28;20332;-67
2021/07/13 12:24:25;;;;;;;1.30;1.20;;;;;;;;;;5080467;28;20584;-67
2021/07/13 12:30:23;;;;;;;1.60;1.50;;;;;;;;;;5080802;28;20213;-67
2021/07/13 12:33:02;;;;;;;1.43;1.40;;;;;;;;;;5080310;28;20284;-67
2021/07/13 12:35:30;;;;;;;1.70;1.13;;;;;;;;;;5080565;28;20246;-66
2021/07/13 12:38:08;;;;;;;2.10;1.10;;;;;;;;;;5080850;28;20206;-67
2021/07/13 12:40:36;;;;;;;2.07;1.40;;;;;;;;;;5081192;28;20210;-66
2021/07/13 12:43:09;;;;;;;2.13;0.90;;;;;;;;;;5080872;28;20222;-67
2021/07/13 12:45:38;;;;;;;6.80;1.40;;;;;;;;;;5080291;28;20213;-67
2021/07/13 12:48:07;;;;;;;0.97;0.90;;;;;;;;;;5080041;28;20810;-67
2021/07/13 12:50:35;;;;;;;1.23;1.17;;;;;;;;;;5080723;28;20210;-67
2021/07/13 12:53:06;;;;;;;0.80;0.80;;;;;;;;;;5080325;28;20225;-67
2021/07/13 12:55:35;;;;;;;1.23;1.20;;;;;;;;;;5080353;28;20321;-66
2021/07/13 12:58:14;;;;;;;1.10;1.00;;;;;;;;;;5080515;28;20210;-67
2021/07/13 13:00:44;;;;;;;1.40;0.90;;;;;;;;;;5080448;28;20202;-67
2021/07/13 13:03:13;;;;;;;2.17;1.20;;;;;;;;;;5080050;28;20232;-67
2021/07/13 13:05:42;;;;;;;1.20;1.20;;;;;;;;;;5080150;28;20568;-67
2021/07/13 13:08:11;;;;;;;1.33;1.10;;;;;;;;;;5080082;28;20210;-67
2021/07/13 13:10:40;;;;;;;1.97;1.30;;;;;;;;;;5079842;28;20737;-67
2021/07/13 13:13:08;;;;;;;0.90;0.90;;;;;;;;;;5079817;28;20222;-67
2021/07/13 13:15:37;;;;;;;3.23;1.30;;;;;;;;;;5080052;28;20236;-67
2021/07/13 13:18:07;;;;;;;1.40;1.00;;;;;;;;;;5079694;28;20779;-66
2021/07/13 13:20:36;;;;;;;1.23;1.03;;;;;;;;;;5080043;28;20206;-67
2021/07/13 13:23:08;;;;;;;1.13;1.10;;;;;;;;;;5080280;28;20273;-67
2021/07/13 13:25:36;;;;;;;1.20;1.10;;;;;;;;;;5079970;28;20212;-67
2021/07/13 13:28:04;;;;;;;1.77;1.23;;;;;;;;;;5079874;28;20240;-67
2021/07/13 13:30:32;;;;;;;1.43;1.33;;;;;;;;;;5079846;28;20220;-67
2021/07/13 13:33:00;;;;;;;1.20;1.10;;;;;;;;;;5079506;28;20222;-67
2021/07/13 13:35:36;;;;;;;3.87;2.97;;;;;;;;;;5079015;28;20238;-66
2021/07/13 13:38:12;;;;;;;1.87;1.70;;;;;;;;;;5078889;28;20248;-67
2021/07/13 13:40:42;;;;;;;1.50;1.40;;;;;;;;;;5079169;28;20217;-67
2021/07/13 13:43:11;;;;;;;2.00;1.53;;;;;;;;;;5078857;28;20570;-67
2021/07/13 13:45:38;;;;;;;1.93;1.40;;;;;;;;;;5078947;28;20257;-67
2021/07/13 13:48:07;;;;;;;1.33;1.20;;;;;;;;;;5079000;28;20217;-67
2021/07/13 13:50:36;;;;;;;4.13;1.80;;;;;;;;;;5079621;28;20206;-67
2021/07/13 13:53:24;;;;;;;4.20;2.40;;;;;;;;;;5069111;28;20225;-67
2021/07/13 13:56:04;;;;;;;5.10;2.00;;;;;;;;;;5078954;28;20225;-67
2021/07/13 13:58:32;;;;;;;4.07;2.37;;;;;;;;;;5078278;28;20277;-67
2021/07/13 14:01:01;;;;;;;4.37;1.50;;;;;;;;;;5079068;28;20260;-67
2021/07/13 14:03:29;;;;;;;2.07;1.70;;;;;;;;;;5078998;28;20206;-67
2021/07/13 14:05:59;;;;;;;1.70;1.60;;;;;;;;;;5079053;28;20202;-67
2021/07/13 14:08:30;;;;;;;1.93;1.60;;;;;;;;;;5079234;28;20669;-67
2021/07/13 14:10:59;;;;;;;1.47;1.40;;;;;;;;;;5079137;28;20238;-67
2021/07/13 14:13:26;;;;;;;1.63;1.53;;;;;;;;;;5078618;28;20216;-67
2021/07/13 14:15:55;;;;;;;1.50;1.50;;;;;;;;;;5078869;28;20226;-67
2021/07/13 14:18:23;;;;;;;2.10;1.50;;;;;;;;;;5078509;28;20206;-67
2021/07/13 14:20:52;;;;;;;1.70;1.40;;;;;;;;;;5078562;28;20292;-67
2021/07/13 14:23:21;;;;;;;2.47;1.70;;;;;;;;;;5078625;28;20230;-67
2021/07/13 14:25:49;;;;;;;2.60;1.63;;;;;;;;;;5078643;28;20203;-66
2021/07/13 14:28:17;;;;;;;1.60;1.50;;;;;;;;;;5078315;28;20202;-67
2021/07/13 14:30:45;;;;;;;1.83;1.73;;;;;;;;;;5078333;28;20293;-67
2021/07/13 14:33:13;;;;;;;2.10;1.70;;;;;;;;;;5078000;28;20586;-67
2021/07/13 14:35:41;;;;;;;1.37;1.37;;;;;;;;;;5078294;28;20297;-67
2021/07/13 14:38:09;;;;;;;2.73;1.63;;;;;;;;;;5078552;28;20290;-66
2021/07/13 14:40:39;;;;;;;3.43;1.60;;;;;;;;;;5078442;28;20265;-67
2021/07/13 14:43:07;;;;;;;5.03;1.60;;;;;;;;;;5078425;28;20230;-66
2021/07/13 14:45:45;;;;;;;3.57;1.60;;;;;;;;;;5078748;28;20204;-67
2021/07/13 14:48:13;;;;;;;1.70;1.23;;;;;;;;;;5078458;28;20289;-67
2021/07/13 14:50:45;;;;;;;1.43;1.00;;;;;;;;;;5078568;28;20206;-67
2021/07/13 14:53:14;;;;;;;1.40;1.30;;;;;;;;;;5078324;28;20280;-67
2021/07/13 15:02:18;;;;;;;1.87;1.10;;;;;;;;;;5077667;28;20226;-67
2021/07/13 15:04:46;;;;;;;3.13;1.10;;;;;;;;;;5078580;28;20217;-67
2021/07/13 15:07:14;;;;;;;1.13;1.07;;;;;;;;;;5078452;28;20289;-67
2021/07/13 15:09:42;;;;;;;2.00;1.07;;;;;;;;;;5078639;28;20202;-67
2021/07/13 15:12:10;;;;;;;4.00;1.10;;;;;;;;;;5078003;28;20217;-67